Time;durP1;ratioP1;P1;durP2;ratioP2;P2;SDS_P1;SDS_P2;PMS_P1;PMS_P2;Temp;Humidity;BMP_temperature;BMP_pressure;BME280_temperature;BME280_humidity;BME280_pressure;Samples;Min_cycle;Max_cycle;Signal;HPM_P1;HPM_P2
2024/02/17 00:02:20;;;;;;;19.90;3.88;;;;;;;;;;5029750;28;20116;-69
2024/02/17 00:04:45;;;;;;;21.55;4.57;;;;;;;;;;5030779;28;20033;-67
2024/02/17 00:07:10;;;;;;;15.30;4.10;;;;;;;;;;5030537;28;20038;-68
2024/02/17 00:09:36;;;;;;;12.88;3.88;;;;;;;;;;5029115;28;20056;-68
2024/02/17 00:12:01;;;;;;;18.88;4.25;;;;;;;;;;5030907;28;20029;-68
2024/02/17 00:14:26;;;;;;;22.80;4.53;;;;;;;;;;5030720;28;20037;-67
2024/02/17 00:16:51;;;;;;;28.17;4.90;;;;;;;;;;5030186;28;20031;-68
2024/02/17 00:19:17;;;;;;;21.20;3.92;;;;;;;;;;5030656;28;20033;-67
2024/02/17 00:21:42;;;;;;;14.85;4.13;;;;;;;;;;5030806;28;20455;-68
2024/02/17 00:24:08;;;;;;;20.20;4.25;;;;;;;;;;5030039;28;20033;-68
2024/02/17 00:26:33;;;;;;;12.02;3.85;;;;;;;;;;5012843;28;20033;-67
2024/02/17 00:28:59;;;;;;;17.52;4.28;;;;;;;;;;5030153;28;20108;-67
2024/02/17 00:31:25;;;;;;;13.60;4.05;;;;;;;;;;5029964;28;20124;-68
2024/02/17 00:33:50;;;;;;;14.50;3.38;;;;;;;;;;5029099;28;20041;-67
2024/02/17 00:36:15;;;;;;;17.10;3.65;;;;;;;;;;5029658;28;20049;-68
2024/02/17 00:38:41;;;;;;;38.45;4.60;;;;;;;;;;5028942;28;20052;-68
2024/02/17 00:41:09;;;;;;;17.20;3.30;;;;;;;;;;5032037;28;20108;-68
2024/02/17 00:43:34;;;;;;;23.33;4.05;;;;;;;;;;5029070;28;20044;-67
2024/02/17 00:46:00;;;;;;;16.63;3.55;;;;;;;;;;5031218;28;20026;-68
2024/02/17 00:48:26;;;;;;;20.58;3.60;;;;;;;;;;5029565;28;20029;-68
2024/02/17 00:50:51;;;;;;;17.27;4.15;;;;;;;;;;5029969;28;20472;-68
2024/02/17 00:53:17;;;;;;;21.52;4.38;;;;;;;;;;5028480;28;20048;-67
2024/02/17 00:55:42;;;;;;;15.63;3.30;;;;;;;;;;5026966;28;20038;-67
2024/02/17 00:58:08;;;;;;;12.10;3.17;;;;;;;;;;5029887;28;20045;-67
2024/02/17 01:00:33;;;;;;;11.07;3.42;;;;;;;;;;5030076;28;20029;-68
2024/02/17 01:02:59;;;;;;;20.48;3.00;;;;;;;;;;5029395;28;20048;-67
2024/02/17 01:05:25;;;;;;;8.20;2.92;;;;;;;;;;5004773;28;20077;-68
2024/02/17 01:07:50;;;;;;;11.38;3.15;;;;;;;;;;4989500;28;20060;-67
2024/02/17 01:10:16;;;;;;;10.45;3.53;;;;;;;;;;4989722;28;20114;-70
2024/02/17 01:12:41;;;;;;;20.15;3.53;;;;;;;;;;4990030;28;20042;-67
2024/02/17 01:15:08;;;;;;;19.23;3.25;;;;;;;;;;4988482;28;20030;-68
2024/02/17 01:17:33;;;;;;;18.70;3.85;;;;;;;;;;4987849;28;20041;-67
2024/02/17 01:19:58;;;;;;;10.98;4.10;;;;;;;;;;5002514;28;20034;-68
2024/02/17 01:22:24;;;;;;;21.65;3.42;;;;;;;;;;4990279;28;20030;-67
2024/02/17 01:24:49;;;;;;;19.13;3.50;;;;;;;;;;4990646;28;20113;-68
2024/02/17 01:27:15;;;;;;;11.25;3.63;;;;;;;;;;4989882;28;20055;-68
2024/02/17 01:29:40;;;;;;;15.27;3.67;;;;;;;;;;4990345;28;20022;-68
2024/02/17 01:32:06;;;;;;;18.75;4.05;;;;;;;;;;4990256;28;20558;-67
2024/02/17 01:34:31;;;;;;;22.70;4.45;;;;;;;;;;4988668;28;20069;-69
2024/02/17 01:36:57;;;;;;;14.40;3.70;;;;;;;;;;4990263;28;20069;-68
2024/02/17 01:39:23;;;;;;;13.25;3.33;;;;;;;;;;4989996;28;20062;-67
2024/02/17 01:41:49;;;;;;;19.20;3.35;;;;;;;;;;4987199;28;20053;-67
2024/02/17 01:44:14;;;;;;;20.27;3.65;;;;;;;;;;4990367;28;20030;-67
2024/02/17 01:46:40;;;;;;;18.48;3.60;;;;;;;;;;4990586;28;20398;-68
2024/02/17 01:49:05;;;;;;;20.17;3.85;;;;;;;;;;4989949;28;20041;-67
2024/02/17 01:51:31;;;;;;;11.60;3.28;;;;;;;;;;4990272;28;20034;-67
2024/02/17 01:53:57;;;;;;;10.43;3.40;;;;;;;;;;4990284;28;20037;-68
2024/02/17 01:56:24;;;;;;;19.02;3.78;;;;;;;;;;5008268;28;20034;-68
2024/02/17 01:58:50;;;;;;;8.50;3.35;;;;;;;;;;4993816;28;20042;-67
2024/02/17 02:01:16;;;;;;;20.15;3.67;;;;;;;;;;5007019;28;20035;-68
2024/02/17 02:03:41;;;;;;;21.88;3.63;;;;;;;;;;4993435;28;20489;-68
2024/02/17 02:06:07;;;;;;;17.58;3.70;;;;;;;;;;5018988;28;20525;-67
2024/02/17 02:08:32;;;;;;;14.98;4.07;;;;;;;;;;5032972;28;20035;-67
2024/02/17 02:11:00;;;;;;;12.75;3.42;;;;;;;;;;5032460;28;20120;-67
2024/02/17 02:13:26;;;;;;;19.67;3.47;;;;;;;;;;5032469;28;20041;-67
2024/02/17 02:15:51;;;;;;;19.30;3.97;;;;;;;;;;5031929;28;20034;-67
2024/02/17 02:18:16;;;;;;;18.48;3.35;;;;;;;;;;5032009;28;20033;-67
2024/02/17 02:20:42;;;;;;;16.63;3.40;;;;;;;;;;5031872;28;20116;-68
2024/02/17 02:23:07;;;;;;;18.98;3.55;;;;;;;;;;5032629;28;20431;-69
2024/02/17 02:25:32;;;;;;;15.65;4.40;;;;;;;;;;5031905;28;20044;-67
2024/02/17 02:27:58;;;;;;;10.02;3.08;;;;;;;;;;5033077;28;20035;-68
2024/02/17 02:30:24;;;;;;;22.90;3.75;;;;;;;;;;5033416;28;20047;-68
2024/02/17 02:32:49;;;;;;;14.68;4.25;;;;;;;;;;5032414;28;20049;-67
2024/02/17 02:35:15;;;;;;;21.70;4.72;;;;;;;;;;5032213;28;20033;-68
2024/02/17 02:37:40;;;;;;;35.08;4.95;;;;;;;;;;5031861;28;20033;-68
2024/02/17 02:40:06;;;;;;;32.10;5.25;;;;;;;;;;5032279;28;20045;-69
2024/02/17 02:42:32;;;;;;;30.33;4.97;;;;;;;;;;5032202;28;20042;-68
2024/02/17 02:44:57;;;;;;;23.45;5.25;;;;;;;;;;5030508;28;20045;-68
2024/02/17 02:47:23;;;;;;;19.23;5.00;;;;;;;;;;5032316;28;20038;-68
2024/02/17 02:49:48;;;;;;;20.38;5.13;;;;;;;;;;5032167;28;20499;-69
2024/02/17 02:52:14;;;;;;;24.83;5.78;;;;;;;;;;5031824;28;20025;-67
2024/02/17 02:54:39;;;;;;;18.75;5.40;;;;;;;;;;5032009;28;20038;-68
2024/02/17 02:57:05;;;;;;;17.55;5.68;;;;;;;;;;5032040;28;20072;-69
2024/02/17 02:59:30;;;;;;;15.90;5.43;;;;;;;;;;5031619;28;20499;-69
2024/02/17 03:01:56;;;;;;;13.35;4.80;;;;;;;;;;5031800;28;20412;-68
2024/02/17 03:04:21;;;;;;;16.85;4.85;;;;;;;;;;5031335;28;20092;-69
2024/02/17 03:06:46;;;;;;;29.33;5.43;;;;;;;;;;5029640;28;20049;-69
2024/02/17 03:09:13;;;;;;;24.80;5.28;;;;;;;;;;5031659;28;20554;-68
2024/02/17 03:11:38;;;;;;;34.22;5.80;;;;;;;;;;5031834;28;20030;-67
2024/02/17 03:14:04;;;;;;;18.67;4.70;;;;;;;;;;5031038;28;20116;-69
2024/02/17 03:16:29;;;;;;;29.13;5.38;;;;;;;;;;5031723;28;20037;-68
2024/02/17 03:18:55;;;;;;;24.27;4.88;;;;;;;;;;5030342;28;20041;-68
2024/02/17 03:21:21;;;;;;;33.42;5.90;;;;;;;;;;5031503;28;20026;-68
2024/02/17 03:23:46;;;;;;;23.10;4.78;;;;;;;;;;5031208;28;20740;-68
2024/02/17 03:26:12;;;;;;;28.50;5.35;;;;;;;;;;5030995;28;20033;-67
2024/02/17 03:28:37;;;;;;;22.08;5.25;;;;;;;;;;5031380;28;20140;-67
2024/02/17 03:31:03;;;;;;;27.38;5.20;;;;;;;;;;5029373;28;20041;-68
2024/02/17 03:33:29;;;;;;;18.55;5.15;;;;;;;;;;5029877;28;20037;-68
2024/02/17 03:35:54;;;;;;;20.33;4.63;;;;;;;;;;5032001;28;20037;-67
2024/02/17 03:38:19;;;;;;;27.40;5.50;;;;;;;;;;5031648;28;20140;-68
2024/02/17 03:40:45;;;;;;;16.20;4.60;;;;;;;;;;5030792;28;20485;-68
2024/02/17 03:43:10;;;;;;;28.08;5.30;;;;;;;;;;5030523;28;20461;-68
2024/02/17 03:45:35;;;;;;;27.05;5.20;;;;;;;;;;5030134;28;20056;-68
2024/02/17 03:48:01;;;;;;;29.10;5.47;;;;;;;;;;5031531;28;20524;-68
2024/02/17 03:50:27;;;;;;;24.98;5.07;;;;;;;;;;5032656;28;20036;-68
2024/02/17 03:52:52;;;;;;;22.83;5.18;;;;;;;;;;5030575;28;20029;-67
2024/02/17 03:55:18;;;;;;;19.65;5.00;;;;;;;;;;5031021;28;20021;-69
2024/02/17 03:57:44;;;;;;;27.73;5.25;;;;;;;;;;5031224;28;20037;-68
2024/02/17 04:00:13;;;;;;;30.55;5.35;;;;;;;;;;5028810;28;20108;-68
2024/02/17 04:02:38;;;;;;;21.50;5.05;;;;;;;;;;5030665;28;20099;-67
2024/02/17 04:05:04;;;;;;;25.23;5.90;;;;;;;;;;5022686;28;20077;-68
2024/02/17 04:07:29;;;;;;;15.02;4.93;;;;;;;;;;5003251;28;20045;-70
2024/02/17 04:09:55;;;;;;;18.85;5.35;;;;;;;;;;4998356;28;20030;-68
2024/02/17 04:12:20;;;;;;;19.52;5.43;;;;;;;;;;4996947;28;20038;-68
2024/02/17 04:14:46;;;;;;;18.52;5.03;;;;;;;;;;4996771;28;20050;-68
2024/02/17 04:17:11;;;;;;;32.38;5.65;;;;;;;;;;5001571;28;20030;-68
2024/02/17 04:19:38;;;;;;;24.35;5.68;;;;;;;;;;5001822;28;20029;-68
2024/02/17 04:22:03;;;;;;;13.85;4.95;;;;;;;;;;4999935;28;20061;-67
2024/02/17 04:24:29;;;;;;;24.35;5.38;;;;;;;;;;5012707;28;20458;-67
2024/02/17 04:26:54;;;;;;;24.30;6.00;;;;;;;;;;4998531;28;20492;-68
2024/02/17 04:29:20;;;;;;;18.17;4.72;;;;;;;;;;4999853;28;20038;-67
2024/02/17 04:31:45;;;;;;;19.80;5.28;;;;;;;;;;5002012;28;20038;-69
2024/02/17 04:34:11;;;;;;;45.13;5.90;;;;;;;;;;5001997;28;20026;-69
2024/02/17 04:36:36;;;;;;;27.65;5.18;;;;;;;;;;4998833;28;20441;-67
2024/02/17 04:39:01;;;;;;;22.42;5.72;;;;;;;;;;4999221;28;20030;-67
2024/02/17 04:41:27;;;;;;;27.17;6.70;;;;;;;;;;5000845;28;20029;-68
2024/02/17 04:43:52;;;;;;;25.33;5.63;;;;;;;;;;4995118;28;20088;-68
2024/02/17 04:46:17;;;;;;;28.33;5.43;;;;;;;;;;4997910;28;20513;-68
2024/02/17 04:48:43;;;;;;;161.73;9.60;;;;;;;;;;5000872;28;20509;-67
2024/02/17 04:51:08;;;;;;;21.80;5.15;;;;;;;;;;4996067;28;20061;-68
2024/02/17 04:53:33;;;;;;;43.55;6.43;;;;;;;;;;4998829;28;20458;-69
2024/02/17 04:55:59;;;;;;;22.60;6.03;;;;;;;;;;4999064;28;20061;-68
2024/02/17 04:58:24;;;;;;;19.17;5.47;;;;;;;;;;4999103;28;20394;-68
2024/02/17 05:00:49;;;;;;;21.42;4.57;;;;;;;;;;4997051;28;20030;-67
2024/02/17 05:03:15;;;;;;;14.57;5.45;;;;;;;;;;5000326;28;20048;-68
2024/02/17 05:05:43;;;;;;;22.75;5.90;;;;;;;;;;5009910;28;20042;-68
2024/02/17 05:08:09;;;;;;;17.63;5.40;;;;;;;;;;5027945;28;20039;-68
2024/02/17 05:10:34;;;;;;;22.55;5.93;;;;;;;;;;5011524;28;20108;-68
2024/02/17 05:12:59;;;;;;;16.17;5.97;;;;;;;;;;5029902;28;20049;-67
2024/02/17 05:15:26;;;;;;;25.80;6.10;;;;;;;;;;5028323;28;20479;-67
2024/02/17 05:17:51;;;;;;;28.25;5.85;;;;;;;;;;5029426;28;20033;-68
2024/02/17 05:20:17;;;;;;;19.05;5.72;;;;;;;;;;5027933;28;20370;-69
2024/02/17 05:22:43;;;;;;;23.38;5.97;;;;;;;;;;5029263;28;20030;-67
2024/02/17 05:25:09;;;;;;;25.77;6.63;;;;;;;;;;5029445;28;20033;-67
2024/02/17 05:27:34;;;;;;;18.10;5.97;;;;;;;;;;5029433;28;20099;-67
2024/02/17 05:29:59;;;;;;;24.42;6.50;;;;;;;;;;5031099;28;20083;-68
2024/02/17 05:32:27;;;;;;;22.30;6.50;;;;;;;;;;5033662;28;20033;-67
2024/02/17 05:34:52;;;;;;;18.55;6.93;;;;;;;;;;5033305;28;20138;-67
2024/02/17 05:37:17;;;;;;;27.02;5.97;;;;;;;;;;5033569;28;20104;-68
2024/02/17 05:39:43;;;;;;;29.05;7.47;;;;;;;;;;5033652;28;20120;-68
2024/02/17 05:42:08;;;;;;;19.13;5.47;;;;;;;;;;5032990;28;20041;-67
2024/02/17 05:44:33;;;;;;;20.85;6.10;;;;;;;;;;5033503;28;20029;-68
2024/02/17 05:46:59;;;;;;;29.17;6.75;;;;;;;;;;5033252;28;20099;-68
2024/02/17 05:49:24;;;;;;;15.02;4.85;;;;;;;;;;5032933;28;20037;-67
2024/02/17 05:51:49;;;;;;;16.80;5.47;;;;;;;;;;5033319;28;20076;-67
2024/02/17 05:54:18;;;;;;;14.30;5.63;;;;;;;;;;5033476;28;20060;-67
2024/02/17 05:56:45;;;;;;;24.75;6.15;;;;;;;;;;5032797;28;20045;-68
2024/02/17 05:59:10;;;;;;;18.15;5.97;;;;;;;;;;5033218;28;20358;-67
2024/02/17 06:01:35;;;;;;;23.42;5.85;;;;;;;;;;5032837;28;20045;-68
2024/02/17 06:04:01;;;;;;;14.35;5.28;;;;;;;;;;5032811;28;20037;-67
2024/02/17 06:06:26;;;;;;;18.02;5.57;;;;;;;;;;5032666;28;20045;-67
2024/02/17 06:08:53;;;;;;;14.77;4.97;;;;;;;;;;5033134;28;20029;-68
2024/02/17 06:11:18;;;;;;;19.95;5.40;;;;;;;;;;5031218;28;20048;-68
2024/02/17 06:13:43;;;;;;;13.15;5.43;;;;;;;;;;5032782;28;20030;-67
2024/02/17 06:16:11;;;;;;;17.45;5.18;;;;;;;;;;5032943;28;20037;-68
2024/02/17 06:21:22;;;;;;;14.88;5.28;;;;;;;;;;5031911;28;20400;-67
2024/02/17 06:23:48;;;;;;;15.23;5.07;;;;;;;;;;5015379;28;20037;-68
2024/02/17 06:26:24;;;;;;;18.48;4.47;;;;;;;;;;5032595;28;20105;-68
2024/02/17 06:28:50;;;;;;;13.00;4.82;;;;;;;;;;5032068;28;20484;-68
2024/02/17 06:31:15;;;;;;;20.65;5.13;;;;;;;;;;5032448;28;20029;-68
2024/02/17 06:33:40;;;;;;;9.00;4.00;;;;;;;;;;5032821;28;20060;-68
2024/02/17 06:36:06;;;;;;;11.30;4.57;;;;;;;;;;5032114;28;20052;-68
2024/02/17 06:38:32;;;;;;;14.02;4.85;;;;;;;;;;5032527;28;20095;-68
2024/02/17 06:40:57;;;;;;;15.73;4.63;;;;;;;;;;5031563;28;20079;-68
2024/02/17 06:43:22;;;;;;;17.80;5.07;;;;;;;;;;5031736;28;20033;-66
2024/02/17 06:45:48;;;;;;;17.45;4.57;;;;;;;;;;5032346;28;20053;-69
2024/02/17 06:48:13;;;;;;;20.58;4.38;;;;;;;;;;5032244;28;20079;-67
2024/02/17 06:50:38;;;;;;;14.93;4.13;;;;;;;;;;5031887;28;20058;-68
2024/02/17 06:53:04;;;;;;;16.08;3.85;;;;;;;;;;5032117;28;20029;-67
2024/02/17 06:55:29;;;;;;;16.10;4.50;;;;;;;;;;5032309;28;20108;-67
2024/02/17 06:57:54;;;;;;;14.60;4.53;;;;;;;;;;5032153;28;20052;-67
2024/02/17 07:00:20;;;;;;;13.02;4.25;;;;;;;;;;5031861;28;20021;-68
2024/02/17 07:02:45;;;;;;;15.18;4.10;;;;;;;;;;5032199;28;20033;-68
2024/02/17 07:05:13;;;;;;;9.93;3.85;;;;;;;;;;5031533;28;20649;-68
2024/02/17 07:07:39;;;;;;;12.15;4.25;;;;;;;;;;5030106;28;20631;-67
2024/02/17 07:10:05;;;;;;;15.15;4.35;;;;;;;;;;5031757;28;20041;-69
2024/02/17 07:12:34;;;;;;;15.88;4.47;;;;;;;;;;5030273;28;20053;-66
2024/02/17 07:14:59;;;;;;;9.65;3.72;;;;;;;;;;5031566;28;20036;-67
2024/02/17 07:17:25;;;;;;;15.98;4.88;;;;;;;;;;5032070;28;20037;-68
2024/02/17 07:19:50;;;;;;;17.08;4.60;;;;;;;;;;5031804;28;20044;-68
2024/02/17 07:22:15;;;;;;;20.08;4.68;;;;;;;;;;5031137;28;20361;-69
2024/02/17 07:24:42;;;;;;;12.90;3.95;;;;;;;;;;5030020;28;20489;-70
2024/02/17 07:27:08;;;;;;;8.63;4.10;;;;;;;;;;5025770;28;20111;-70
2024/02/17 07:29:37;;;;;;;9.70;3.78;;;;;;;;;;5027200;28;20656;-70
2024/02/17 07:32:05;;;;;;;10.18;4.60;;;;;;;;;;5028884;28;20400;-68
2024/02/17 07:34:31;;;;;;;12.40;3.95;;;;;;;;;;5011462;28;20262;-68
2024/02/17 07:36:59;;;;;;;15.48;3.95;;;;;;;;;;5031230;28;20661;-68
2024/02/17 07:39:25;;;;;;;11.95;4.05;;;;;;;;;;5027453;28;20132;-68
2024/02/17 07:41:51;;;;;;;11.77;3.95;;;;;;;;;;5030527;28;20115;-68
2024/02/17 07:44:19;;;;;;;10.15;3.67;;;;;;;;;;5031122;28;20033;-69
2024/02/17 07:46:45;;;;;;;10.43;3.92;;;;;;;;;;5031241;28;20040;-68
2024/02/17 07:49:10;;;;;;;12.70;3.40;;;;;;;;;;5030045;28;20033;-68
2024/02/17 07:51:38;;;;;;;7.70;3.85;;;;;;;;;;5031409;28;20525;-69
2024/02/17 07:54:03;;;;;;;13.05;4.15;;;;;;;;;;5030657;28;20075;-70
2024/02/17 07:56:28;;;;;;;11.50;4.03;;;;;;;;;;5031217;28;20045;-68
2024/02/17 07:58:54;;;;;;;9.57;3.60;;;;;;;;;;5029343;28;20485;-69
2024/02/17 08:01:19;;;;;;;7.53;3.53;;;;;;;;;;5029745;28;20455;-68
2024/02/17 08:03:45;;;;;;;8.60;3.20;;;;;;;;;;5012908;28;20033;-68
2024/02/17 08:06:10;;;;;;;9.63;3.55;;;;;;;;;;5011761;28;20059;-68
2024/02/17 08:08:36;;;;;;;7.82;3.40;;;;;;;;;;5030677;28;20061;-67
2024/02/17 08:11:02;;;;;;;9.60;3.60;;;;;;;;;;5030965;28;20370;-68
2024/02/17 08:13:27;;;;;;;9.18;3.55;;;;;;;;;;5029858;28;20101;-68
2024/02/17 08:15:53;;;;;;;7.68;2.97;;;;;;;;;;5030575;28;20064;-68
2024/02/17 08:18:18;;;;;;;5.78;2.83;;;;;;;;;;5031164;28;20066;-68
2024/02/17 08:20:44;;;;;;;5.75;3.13;;;;;;;;;;5029675;28;20044;-69
2024/02/17 08:23:09;;;;;;;10.13;3.28;;;;;;;;;;5030526;28;20094;-69
2024/02/17 08:25:34;;;;;;;6.30;2.92;;;;;;;;;;5030785;28;20053;-68
2024/02/17 08:28:00;;;;;;;9.40;3.35;;;;;;;;;;5030702;28;20030;-68
2024/02/17 08:30:25;;;;;;;10.30;4.20;;;;;;;;;;5030014;28;20622;-69
2024/02/17 08:32:54;;;;;;;13.05;5.20;;;;;;;;;;5030339;28;20067;-68
2024/02/17 08:35:19;;;;;;;14.02;5.32;;;;;;;;;;5030740;28;20476;-69
2024/02/17 08:37:44;;;;;;;17.35;6.00;;;;;;;;;;5030536;28;20064;-68
2024/02/17 08:40:10;;;;;;;42.03;7.15;;;;;;;;;;5029874;28;20049;-69
2024/02/17 08:42:36;;;;;;;77.80;7.05;;;;;;;;;;5030561;28;20038;-69
2024/02/17 08:45:01;;;;;;;85.03;7.50;;;;;;;;;;5030401;28;20484;-70
2024/02/17 08:47:26;;;;;;;90.40;7.07;;;;;;;;;;5030094;28;20049;-68
2024/02/17 08:49:52;;;;;;;97.85;7.68;;;;;;;;;;5030144;28;20021;-68
2024/02/17 08:52:17;;;;;;;71.00;8.02;;;;;;;;;;5030273;28;20029;-69
2024/02/17 08:54:42;;;;;;;47.22;7.28;;;;;;;;;;5029521;28;20040;-67
2024/02/17 08:57:08;;;;;;;59.85;7.00;;;;;;;;;;5030275;28;20034;-69
2024/02/17 08:59:33;;;;;;;46.75;6.65;;;;;;;;;;5030387;28;20465;-68
2024/02/17 09:01:59;;;;;;;20.77;6.72;;;;;;;;;;5029981;28;20124;-69
2024/02/17 09:04:24;;;;;;;24.17;6.35;;;;;;;;;;5029347;28;20042;-68
2024/02/17 09:06:49;;;;;;;25.52;6.10;;;;;;;;;;5030316;28;20457;-68
2024/02/17 09:09:16;;;;;;;15.95;6.65;;;;;;;;;;5029715;28;20592;-69
2024/02/17 09:11:42;;;;;;;27.35;7.15;;;;;;;;;;5029730;28;20033;-69
2024/02/17 09:14:07;;;;;;;19.88;6.40;;;;;;;;;;5030258;28;20034;-68
2024/02/17 09:16:32;;;;;;;15.82;6.53;;;;;;;;;;5030201;28;20393;-68
2024/02/17 09:18:58;;;;;;;11.88;5.60;;;;;;;;;;5029087;28;20029;-68
2024/02/17 09:21:23;;;;;;;17.48;6.43;;;;;;;;;;5030144;28;20026;-68
2024/02/17 09:23:48;;;;;;;16.50;6.35;;;;;;;;;;5030274;28;20041;-68
2024/02/17 09:26:14;;;;;;;14.27;6.40;;;;;;;;;;5029312;28;20025;-67
2024/02/17 09:28:39;;;;;;;12.77;6.25;;;;;;;;;;5029924;28;20060;-68
2024/02/17 09:31:05;;;;;;;10.13;5.40;;;;;;;;;;5029542;28;20061;-69
2024/02/17 09:33:30;;;;;;;10.38;5.50;;;;;;;;;;5028177;28;20038;-68
2024/02/17 09:35:56;;;;;;;12.43;5.03;;;;;;;;;;5029156;28;20025;-68
2024/02/17 09:38:21;;;;;;;12.88;6.22;;;;;;;;;;5029319;28;20186;-68
2024/02/17 09:40:47;;;;;;;14.13;8.45;;;;;;;;;;5027131;28;20044;-68
2024/02/17 09:43:13;;;;;;;11.25;6.35;;;;;;;;;;5029299;28;20033;-68
2024/02/17 09:45:38;;;;;;;8.63;4.82;;;;;;;;;;5028571;28;20033;-67
2024/02/17 09:48:05;;;;;;;9.60;4.63;;;;;;;;;;5029508;28;20038;-68
2024/02/17 09:50:31;;;;;;;11.82;4.32;;;;;;;;;;5029486;28;20037;-70
2024/02/17 09:52:56;;;;;;;6.70;4.05;;;;;;;;;;5029697;28;20058;-67
2024/02/17 09:55:23;;;;;;;8.88;4.50;;;;;;;;;;5029724;28;20029;-68
2024/02/17 09:57:48;;;;;;;8.02;4.20;;;;;;;;;;5023073;28;20037;-68
2024/02/17 10:00:14;;;;;;;7.05;4.40;;;;;;;;;;5029518;28;20060;-68
2024/02/17 10:02:43;;;;;;;5.63;3.53;;;;;;;;;;5012037;28;20037;-69
2024/02/17 10:05:09;;;;;;;6.93;3.90;;;;;;;;;;5029251;28;20384;-68
2024/02/17 10:07:49;;;;;;;4.85;3.08;;;;;;;;;;5029667;28;20121;-69
2024/02/17 10:10:17;;;;;;;6.90;3.75;;;;;;;;;;5029430;28;20064;-68
2024/02/17 10:12:58;;;;;;;4.85;3.00;;;;;;;;;;5027948;28;20388;-67
2024/02/17 10:15:25;;;;;;;5.78;2.70;;;;;;;;;;5025917;28;20033;-69
2024/02/17 10:17:52;;;;;;;5.60;2.50;;;;;;;;;;5032703;28;20049;-68
2024/02/17 10:20:18;;;;;;;3.95;2.67;;;;;;;;;;5032164;28;20037;-68
2024/02/17 10:22:44;;;;;;;5.88;2.90;;;;;;;;;;5031189;28;20426;-68
2024/02/17 10:25:10;;;;;;;6.05;2.47;;;;;;;;;;5032707;28;20049;-70
2024/02/17 10:27:36;;;;;;;5.32;2.65;;;;;;;;;;5032591;28;20030;-68
2024/02/17 10:30:13;;;;;;;3.85;2.25;;;;;;;;;;5031337;28;20072;-68
2024/02/17 10:32:39;;;;;;;3.55;1.80;;;;;;;;;;5032253;28;20067;-68
2024/02/17 10:35:07;;;;;;;3.33;1.67;;;;;;;;;;5031378;28;20089;-69
2024/02/17 10:37:33;;;;;;;4.03;1.52;;;;;;;;;;5031378;28;20041;-68
2024/02/17 10:40:03;;;;;;;3.45;1.80;;;;;;;;;;5013878;28;20041;-69
2024/02/17 10:42:30;;;;;;;2.10;1.30;;;;;;;;;;5031519;28;20034;-68
2024/02/17 10:44:56;;;;;;;3.47;1.33;;;;;;;;;;5030893;28;20095;-69
2024/02/17 10:47:27;;;;;;;2.92;1.13;;;;;;;;;;5014128;28;20685;-68
2024/02/17 10:50:10;;;;;;;5.75;1.58;;;;;;;;;;5013762;28;20392;-69
2024/02/17 10:52:43;;;;;;;2.53;1.30;;;;;;;;;;5032190;28;20400;-68
2024/02/17 10:55:11;;;;;;;3.78;1.92;;;;;;;;;;5030235;28;20026;-69
2024/02/17 10:57:56;;;;;;;5.68;2.08;;;;;;;;;;5032254;28;20481;-68
2024/02/17 11:00:23;;;;;;;2.72;1.10;;;;;;;;;;5026067;28;20045;-68
2024/02/17 11:02:50;;;;;;;1.88;0.85;;;;;;;;;;5032308;28;20038;-68
2024/02/17 11:05:19;;;;;;;1.73;1.00;;;;;;;;;;5031907;28;20061;-68
2024/02/17 11:07:45;;;;;;;5.57;2.42;;;;;;;;;;5031523;28;20523;-68
2024/02/17 11:10:12;;;;;;;7.60;4.05;;;;;;;;;;5031027;28;20033;-68
2024/02/17 11:12:38;;;;;;;7.80;4.40;;;;;;;;;;5030824;28;20037;-68
2024/02/17 11:15:11;;;;;;;6.43;2.35;;;;;;;;;;5031840;28;20124;-67
2024/02/17 11:17:40;;;;;;;4.63;3.27;;;;;;;;;;5032318;28;20056;-68
2024/02/17 11:20:09;;;;;;;5.43;3.38;;;;;;;;;;5032017;28;20539;-67
2024/02/17 11:22:34;;;;;;;3.42;2.08;;;;;;;;;;5031469;28;20064;-68
2024/02/17 11:25:01;;;;;;;2.22;0.70;;;;;;;;;;5032153;28;20392;-68
2024/02/17 11:27:27;;;;;;;1.67;0.80;;;;;;;;;;5030050;28;20075;-67
2024/02/17 11:29:57;;;;;;;2.03;0.80;;;;;;;;;;5031552;28;20069;-69
2024/02/17 11:32:22;;;;;;;1.92;0.90;;;;;;;;;;5031044;28;20358;-69
2024/02/17 11:34:49;;;;;;;2.05;1.20;;;;;;;;;;5031799;28;20042;-67
2024/02/17 11:37:15;;;;;;;2.85;0.70;;;;;;;;;;5031156;28;20103;-68
2024/02/17 11:39:41;;;;;;;2.42;1.27;;;;;;;;;;5032117;28;20029;-68
2024/02/17 11:42:06;;;;;;;2.20;1.00;;;;;;;;;;5030506;28;20041;-67
2024/02/17 11:44:32;;;;;;;3.72;1.38;;;;;;;;;;5031302;28;20033;-68
2024/02/17 11:46:57;;;;;;;3.08;0.88;;;;;;;;;;5031340;28;20038;-69
2024/02/17 11:49:27;;;;;;;1.50;0.90;;;;;;;;;;5031565;28;20044;-68
2024/02/17 11:51:59;;;;;;;2.72;1.02;;;;;;;;;;5030923;28;20389;-69
2024/02/17 11:54:25;;;;;;;3.22;1.63;;;;;;;;;;5031032;28;20037;-68
2024/02/17 11:56:51;;;;;;;4.90;2.78;;;;;;;;;;5030208;28;20041;-70
2024/02/17 11:59:16;;;;;;;2.25;1.40;;;;;;;;;;5028539;28;20029;-68
2024/02/17 12:01:41;;;;;;;3.47;1.10;;;;;;;;;;5026446;28;20041;-68
2024/02/17 12:04:08;;;;;;;1.55;0.80;;;;;;;;;;5030576;28;20119;-69
2024/02/17 12:06:33;;;;;;;4.10;1.60;;;;;;;;;;5030835;28;20045;-68
2024/02/17 12:08:58;;;;;;;4.63;1.35;;;;;;;;;;5030686;28;20508;-68
2024/02/17 12:11:24;;;;;;;1.05;0.70;;;;;;;;;;5029551;28;20477;-68
2024/02/17 12:13:49;;;;;;;1.05;0.60;;;;;;;;;;5028570;28;20040;-68
2024/02/17 12:16:14;;;;;;;3.00;0.85;;;;;;;;;;5029685;28;20044;-69
2024/02/17 12:18:41;;;;;;;4.65;0.90;;;;;;;;;;5030259;28;20044;-68
2024/02/17 12:21:07;;;;;;;2.30;0.70;;;;;;;;;;5029249;28;20037;-68
2024/02/17 12:23:37;;;;;;;1.42;0.80;;;;;;;;;;5029666;28;20042;-70
2024/02/17 12:26:05;;;;;;;4.05;1.30;;;;;;;;;;5029043;28;20041;-68
2024/02/17 12:28:32;;;;;;;6.25;1.50;;;;;;;;;;5029495;28;20045;-68
2024/02/17 12:30:58;;;;;;;4.40;2.17;;;;;;;;;;5030051;28;20065;-69
2024/02/17 12:33:23;;;;;;;59.42;20.00;;;;;;;;;;5030452;28;20489;-70
2024/02/17 12:35:50;;;;;;;7.57;3.10;;;;;;;;;;5030563;28;20038;-68
2024/02/17 12:38:19;;;;;;;10.68;4.32;;;;;;;;;;5012636;28;20037;-68
2024/02/17 12:40:50;;;;;;;10.52;4.65;;;;;;;;;;5029638;28;20033;-68
2024/02/17 12:43:18;;;;;;;2.10;1.20;;;;;;;;;;5030675;28;20033;-68
2024/02/17 12:45:43;;;;;;;3.42;1.50;;;;;;;;;;5030478;28;20037;-70
2024/02/17 12:48:09;;;;;;;5.60;2.55;;;;;;;;;;5028709;28;20063;-68
2024/02/17 12:50:34;;;;;;;7.07;3.28;;;;;;;;;;5028444;28;20072;-69
2024/02/17 12:53:20;;;;;;;3.47;1.45;;;;;;;;;;5028815;28;20072;-69
2024/02/17 12:55:47;;;;;;;3.85;2.22;;;;;;;;;;5028355;28;20045;-69
2024/02/17 12:58:12;;;;;;;4.10;1.77;;;;;;;;;;5030346;28;20103;-69
2024/02/17 13:00:38;;;;;;;4.78;1.20;;;;;;;;;;5029030;28;20583;-69
2024/02/17 13:03:05;;;;;;;2.92;1.40;;;;;;;;;;5029890;28;20041;-69
2024/02/17 13:05:30;;;;;;;2.92;1.10;;;;;;;;;;5030240;28;20209;-69
2024/02/17 13:07:56;;;;;;;3.40;1.33;;;;;;;;;;5030236;28;20116;-68
2024/02/17 13:10:22;;;;;;;7.97;2.97;;;;;;;;;;5028201;28;20086;-68
2024/02/17 13:12:47;;;;;;;12.05;3.10;;;;;;;;;;5030029;28;20032;-68
2024/02/17 13:15:18;;;;;;;13.32;4.15;;;;;;;;;;5030061;28;20037;-68
2024/02/17 13:17:43;;;;;;;8.95;2.65;;;;;;;;;;5029983;28;20034;-68
2024/02/17 13:20:09;;;;;;;12.02;3.40;;;;;;;;;;5029700;28;20098;-69
2024/02/17 13:22:35;;;;;;;15.52;4.25;;;;;;;;;;5030072;28;20112;-68
2024/02/17 13:25:00;;;;;;;16.25;4.35;;;;;;;;;;5029762;28;20484;-68
2024/02/17 13:27:25;;;;;;;25.25;6.65;;;;;;;;;;5029667;28;20120;-69
2024/02/17 13:29:51;;;;;;;14.93;3.55;;;;;;;;;;5029795;28;20107;-68
2024/02/17 13:32:16;;;;;;;18.15;4.90;;;;;;;;;;5029363;28;20182;-68
2024/02/17 13:34:41;;;;;;;11.38;2.58;;;;;;;;;;5028379;28;20037;-68
2024/02/17 13:37:07;;;;;;;11.10;4.20;;;;;;;;;;5029710;28;20041;-68
2024/02/17 13:39:32;;;;;;;17.17;4.85;;;;;;;;;;5029883;28;20030;-68
2024/02/17 13:41:57;;;;;;;27.95;6.97;;;;;;;;;;5029612;28;20681;-68
2024/02/17 13:44:23;;;;;;;17.85;4.53;;;;;;;;;;5026850;28;20037;-68
2024/02/17 13:46:49;;;;;;;13.55;3.65;;;;;;;;;;5029828;28;20060;-68
2024/02/17 13:49:14;;;;;;;13.00;3.33;;;;;;;;;;5029456;28;20124;-68
2024/02/17 13:51:39;;;;;;;15.80;3.65;;;;;;;;;;5029915;28;20392;-69
2024/02/17 13:54:07;;;;;;;22.25;4.15;;;;;;;;;;5025643;28;20412;-69
2024/02/17 13:56:34;;;;;;;12.13;2.80;;;;;;;;;;5032320;28;20435;-68
2024/02/17 13:59:00;;;;;;;16.80;5.65;;;;;;;;;;5031740;28;20038;-69
2024/02/17 14:01:26;;;;;;;14.02;4.30;;;;;;;;;;5033263;28;20029;-68
2024/02/17 14:03:52;;;;;;;12.85;4.07;;;;;;;;;;5030014;28;20068;-68
2024/02/17 14:06:17;;;;;;;12.73;4.20;;;;;;;;;;5030951;28;20069;-68
2024/02/17 14:08:42;;;;;;;11.15;4.22;;;;;;;;;;5033147;28;20037;-69
2024/02/17 14:11:08;;;;;;;14.75;5.32;;;;;;;;;;5031176;28;20037;-68
2024/02/17 14:13:34;;;;;;;14.52;4.25;;;;;;;;;;5032628;28;20049;-69
2024/02/17 14:16:00;;;;;;;14.38;5.88;;;;;;;;;;5032565;28;20075;-69
2024/02/17 14:18:27;;;;;;;12.95;4.90;;;;;;;;;;5032311;28;20041;-68
2024/02/17 14:20:57;;;;;;;11.90;3.60;;;;;;;;;;5032996;28;20112;-69
2024/02/17 14:23:22;;;;;;;14.60;5.10;;;;;;;;;;5032119;28;20037;-68
2024/02/17 14:25:48;;;;;;;6.55;2.30;;;;;;;;;;5033150;28;20493;-68
2024/02/17 14:28:13;;;;;;;9.65;3.10;;;;;;;;;;5032591;28;20065;-68
2024/02/17 14:30:38;;;;;;;10.75;2.90;;;;;;;;;;5032897;28;20040;-69